createdAt,value
2016-08-30T00:00:47.687Z,74.08
2016-08-30T00:01:49.613Z,74.08
2016-08-30T00:02:48.667Z,74.37
2016-08-30T00:03:47.350Z,74.18
2016-08-30T00:04:47.326Z,74.47
2016-08-30T00:05:47.302Z,73.9
2016-08-30T00:06:47.282Z,73.9
2016-08-30T00:07:47.260Z,73.9
2016-08-30T00:08:47.239Z,73.9
2016-08-30T00:09:47.269Z,73.9
2016-08-30T00:10:47.195Z,73.99
2016-08-30T00:11:47.176Z,73.8
2016-08-30T00:12:47.154Z,73.99
2016-08-30T00:13:47.155Z,74.18
2016-08-30T00:14:47.111Z,74.18
2016-08-30T00:15:47.088Z,74.18
2016-08-30T00:16:47.067Z,73.99
2016-08-30T00:17:47.046Z,73.99
2016-08-30T00:18:47.029Z,73.9
2016-08-30T00:19:47.001Z,73.99
2016-08-30T00:20:46.978Z,73.8
2016-08-30T00:21:46.957Z,74.37
2016-08-30T00:22:46.938Z,74.37
2016-08-30T00:23:46.918Z,73.99
2016-08-30T00:24:46.895Z,74.18
2016-08-30T00:25:46.871Z,74.08
2016-08-30T00:26:46.850Z,74.18
2016-08-30T00:27:46.828Z,73.8
2016-08-30T00:28:46.805Z,74.57
2016-08-30T00:29:46.785Z,74.37
2016-08-30T00:30:46.760Z,74.37
2016-08-30T00:31:46.740Z,74.66
2016-08-30T00:32:46.720Z,74.57
2016-08-30T00:33:46.698Z,74.66
2016-08-30T00:34:46.675Z,74.91
2016-08-30T00:35:46.652Z,74.57
2016-08-30T00:36:46.630Z,74.85
2016-08-30T00:37:46.613Z,74.72
2016-08-30T00:38:46.588Z,75.01
2016-08-30T00:39:46.566Z,74.91
2016-08-30T00:40:46.542Z,75.2
2016-08-30T00:41:46.522Z,75.1
2016-08-30T00:42:46.499Z,75.01
2016-08-30T00:43:46.477Z,75.39
2016-08-30T00:44:46.457Z,75.29
2016-08-30T00:45:46.433Z,75.39
2016-08-30T00:46:46.412Z,75.68
2016-08-30T00:47:46.391Z,75.48
2016-08-30T00:48:46.369Z,75.29
2016-08-30T00:49:46.346Z,75.77
2016-08-30T00:50:46.325Z,75.58
2016-08-30T00:51:46.301Z,75.77
2016-08-30T00:52:46.281Z,75.96
2016-08-30T00:53:46.255Z,75.77
2016-08-30T00:54:46.234Z,76.25
2016-08-30T00:55:46.213Z,76.35
2016-08-30T00:56:46.191Z,76.25
2016-08-30T00:57:46.168Z,76.06
2016-08-30T00:58:46.144Z,76.25
2016-08-30T00:59:46.124Z,76.25
2016-08-30T01:00:46.101Z,76.15
2016-08-30T01:01:46.080Z,76.44
2016-08-30T01:02:46.057Z,76.54
2016-08-30T01:03:46.033Z,76.54
2016-08-30T01:04:46.013Z,76.5
2016-08-30T01:05:45.991Z,76.73
2016-08-30T01:06:45.970Z,76.89
2016-08-30T01:07:45.946Z,77.02
2016-08-30T01:08:45.922Z,76.89
2016-08-30T01:09:45.901Z,76.98
2016-08-30T01:10:45.885Z,76.73
2016-08-30T01:11:45.857Z,76.5
2016-08-30T01:12:45.835Z,76.69
2016-08-30T01:13:45.811Z,77.26
2016-08-30T01:14:45.790Z,76.89
2016-08-30T01:15:45.767Z,77.08
2016-08-30T01:16:45.746Z,77.17
2016-08-30T01:17:45.724Z,77.17
2016-08-30T01:18:45.699Z,77.17
2016-08-30T01:19:46.372Z,77.17
2016-08-30T01:20:45.656Z,77.17
2016-08-30T01:21:45.639Z,77.08
2016-08-30T01:22:45.614Z,77.36
2016-08-30T01:23:45.588Z,77.36
2016-08-30T01:24:45.567Z,77.17
2016-08-30T01:25:45.544Z,77.26
2016-08-30T01:26:45.521Z,77.46
2016-08-30T01:27:45.499Z,77.65
2016-08-30T01:28:45.476Z,77.46
2016-08-30T01:29:45.453Z,77.36
2016-08-30T01:30:45.431Z,77.94
2016-08-30T01:31:45.414Z,77.94
2016-08-30T01:32:45.391Z,77.94
2016-08-30T01:33:45.363Z,77.65
2016-08-30T01:34:45.342Z,77.84
2016-08-30T01:35:45.321Z,77.94
2016-08-30T01:36:45.296Z,77.65
2016-08-30T01:37:45.275Z,77.94
2016-08-30T01:38:45.250Z,77.84
2016-08-30T01:39:45.231Z,78.03
2016-08-30T01:40:45.207Z,78.03
2016-08-30T01:41:45.185Z,78.13
2016-08-30T01:42:45.164Z,78.13
2016-08-30T01:43:45.140Z,78.13
2016-08-30T01:44:45.119Z,78.51
2016-08-30T01:45:45.101Z,78.61
2016-08-30T01:46:45.074Z,78.7
2016-08-30T01:47:45.051Z,78.51
2016-08-30T01:48:45.032Z,78.51
2016-08-30T01:49:45.006Z,78.8
2016-08-30T01:50:44.984Z,78.51
2016-08-30T01:51:44.960Z,78.22
2016-08-30T01:52:44.941Z,78.42
2016-08-30T01:53:44.913Z,78.61
2016-08-30T01:54:44.892Z,78.42
2016-08-30T01:55:44.875Z,78.32
2016-08-30T01:56:44.848Z,78.42
2016-08-30T01:57:44.823Z,78.61
2016-08-30T01:58:44.801Z,78.42
2016-08-30T01:59:44.779Z,78.61
2016-08-30T02:00:44.756Z,78.22
2016-08-30T02:01:45.427Z,78.38
2016-08-30T02:02:44.710Z,78.32
2016-08-30T02:03:44.687Z,78.38
2016-08-30T02:04:44.666Z,78.61
2016-08-30T02:05:44.642Z,78.42
2016-08-30T02:06:44.621Z,78.7
2016-08-30T02:07:44.597Z,78.57
2016-08-30T02:08:44.576Z,78.66
2016-08-30T02:09:44.553Z,78.51
2016-08-30T02:10:44.531Z,78.61
2016-08-30T02:11:44.509Z,78.32
2016-08-30T02:12:44.486Z,78.89
2016-08-30T02:13:44.462Z,78.86
2016-08-30T02:14:44.440Z,78.8
2016-08-30T02:15:44.421Z,78.8
2016-08-30T02:16:44.406Z,78.89
2016-08-30T02:17:44.372Z,79.05
2016-08-30T02:18:44.349Z,79.47
2016-08-30T02:19:44.327Z,79.05
2016-08-30T02:20:44.302Z,79.28
2016-08-30T02:21:44.282Z,79.33
2016-08-30T02:22:44.260Z,79.52
2016-08-30T02:23:44.236Z,79.33
2016-08-30T02:24:44.214Z,79.43
2016-08-30T02:25:44.189Z,80
2016-08-30T02:26:44.168Z,80.04
2016-08-30T02:27:44.144Z,79.75
2016-08-30T02:28:44.122Z,79.43
2016-08-30T02:29:44.102Z,79.81
2016-08-30T02:30:44.076Z,79.72
2016-08-30T02:31:44.054Z,80.1
2016-08-30T02:32:44.032Z,79.81
2016-08-30T02:33:44.010Z,79.81
2016-08-30T02:34:43.991Z,80
2016-08-30T02:35:43.962Z,79.72
2016-08-30T02:36:43.941Z,80.19
2016-08-30T02:37:43.924Z,80.19
2016-08-30T02:38:43.895Z,79.91
2016-08-30T02:39:43.872Z,80.29
2016-08-30T02:40:43.850Z,80.77
2016-08-30T02:41:43.829Z,80.67
2016-08-30T02:42:43.803Z,80.58
2016-08-30T02:43:43.787Z,80.58
2016-08-30T02:44:44.456Z,80.38
2016-08-30T02:45:43.734Z,80.48
2016-08-30T02:46:43.715Z,80.38
2016-08-30T02:47:43.693Z,80.58
2016-08-30T02:48:43.668Z,80.29
2016-08-30T02:49:43.645Z,80.67
2016-08-30T02:50:43.620Z,80.67
2016-08-30T02:51:43.600Z,81.05
2016-08-30T02:52:43.577Z,80.38
2016-08-30T02:53:43.553Z,80.48
2016-08-30T02:54:43.531Z,80.58
2016-08-30T02:55:43.506Z,80.77
2016-08-30T02:56:43.486Z,80.67
2016-08-30T02:57:43.462Z,80.77
2016-08-30T02:58:43.439Z,80.58
2016-08-30T02:59:43.418Z,80.58
2016-08-30T03:00:43.391Z,80.38
2016-08-30T03:01:43.371Z,80.87
2016-08-30T03:02:43.348Z,80.77
2016-08-30T03:03:43.325Z,80.77
2016-08-30T03:04:43.302Z,80.67
2016-08-30T03:05:43.284Z,80.67
2016-08-30T03:06:43.256Z,81.25
2016-08-30T03:07:43.238Z,80.77
2016-08-30T03:08:43.209Z,80.48
2016-08-30T03:09:43.187Z,80.48
2016-08-30T03:10:43.167Z,80.48
2016-08-30T03:11:43.142Z,80.67
2016-08-30T03:12:43.119Z,80.38
2016-08-30T03:13:43.095Z,80.48
2016-08-30T03:14:43.074Z,80.67
2016-08-30T03:15:43.050Z,80.67
2016-08-30T03:16:43.028Z,80.77
2016-08-30T03:17:43.061Z,80.87
2016-08-30T03:18:42.981Z,80.87
2016-08-30T03:19:42.960Z,81.82
2016-08-30T03:20:42.937Z,81.63
2016-08-30T03:21:42.926Z,81.44
2016-08-30T03:22:42.891Z,81.54
2016-08-30T03:23:42.866Z,81.34
2016-08-30T03:24:42.847Z,81.44
2016-08-30T03:25:42.823Z,81.25
2016-08-30T03:26:42.797Z,81.34
2016-08-30T03:27:42.776Z,81.34
2016-08-30T03:28:42.753Z,81.02
2016-08-30T03:29:42.730Z,81.05
2016-08-30T03:30:42.707Z,81.25
2016-08-30T03:31:42.683Z,81.54
2016-08-30T03:32:42.661Z,81.34
2016-08-30T03:33:42.637Z,81.25
2016-08-30T03:34:42.613Z,81.02
2016-08-30T03:35:43.244Z,81.34
2016-08-30T03:36:42.569Z,80.92
2016-08-30T03:37:42.543Z,81.49
2016-08-30T03:38:42.531Z,81.68
2016-08-30T03:39:42.499Z,81.49
2016-08-30T03:40:42.476Z,81.21
2016-08-30T03:41:42.453Z,81.11
2016-08-30T03:42:42.430Z,81.11
2016-08-30T03:43:42.407Z,81.59
2016-08-30T03:44:42.383Z,81.59
2016-08-30T03:45:42.358Z,81.21
2016-08-30T03:46:42.337Z,81.59
2016-08-30T03:47:42.314Z,81.21
2016-08-30T03:48:42.289Z,81.59
2016-08-30T03:49:42.269Z,81.97
2016-08-30T03:50:42.247Z,81.68
2016-08-30T03:51:42.221Z,81.68
2016-08-30T03:52:42.198Z,81.59
2016-08-30T03:53:42.180Z,81.59
2016-08-30T03:54:42.154Z,81.49
2016-08-30T03:55:42.128Z,81.49
2016-08-30T03:56:42.105Z,81.59
2016-08-30T03:57:42.082Z,81.4
2016-08-30T03:58:42.058Z,81.49
2016-08-30T03:59:42.041Z,81.49
2016-08-30T04:00:42.014Z,81.59
2016-08-30T04:01:41.988Z,81.59
2016-08-30T04:02:41.966Z,81.59
2016-08-30T04:03:41.942Z,81.88
2016-08-30T04:04:41.918Z,81.49
2016-08-30T04:05:41.902Z,82.07
2016-08-30T04:06:41.875Z,82.26
2016-08-30T04:07:41.849Z,82.07
2016-08-30T04:08:41.827Z,81.97
2016-08-30T04:09:41.816Z,82.26
2016-08-30T04:10:41.781Z,81.68
2016-08-30T04:11:41.757Z,82.26
2016-08-30T04:12:41.732Z,82.26
2016-08-30T04:13:41.714Z,81.78
2016-08-30T04:14:41.687Z,82.26
2016-08-30T04:15:41.664Z,82.74
2016-08-30T04:16:41.641Z,82.45
2016-08-30T04:17:41.618Z,82.64
2016-08-30T04:18:41.595Z,82.64
2016-08-30T04:19:41.572Z,82.64
2016-08-30T04:20:41.549Z,82.64
2016-08-30T04:21:41.523Z,82.45
2016-08-30T04:22:41.502Z,82.74
2016-08-30T04:23:41.477Z,83.12
2016-08-30T04:24:41.456Z,83.4
2016-08-30T04:25:41.431Z,83.12
2016-08-30T04:26:41.409Z,82.64
2016-08-30T04:27:41.388Z,82.74
2016-08-30T04:28:41.373Z,82.74
2016-08-30T04:29:41.343Z,83.22
2016-08-30T04:30:41.315Z,82.54
2016-08-30T04:31:41.290Z,83.22
2016-08-30T04:32:41.266Z,83.03
2016-08-30T04:33:41.245Z,83.12
2016-08-30T04:34:41.223Z,82.93
2016-08-30T04:35:41.199Z,83.69
2016-08-30T04:36:41.175Z,82.93
2016-08-30T04:37:41.151Z,83.22
2016-08-30T04:38:41.127Z,83.03
2016-08-30T04:39:41.105Z,82.83
2016-08-30T04:40:41.080Z,83.69
2016-08-30T04:41:41.058Z,83.69
2016-08-30T04:42:41.036Z,82.98
2016-08-30T04:43:41.009Z,83.89
2016-08-30T04:44:40.989Z,83.27
2016-08-30T04:45:40.964Z,83.65
2016-08-30T04:46:40.940Z,83.46
2016-08-30T04:47:40.924Z,83.56
2016-08-30T04:48:40.894Z,83.65
2016-08-30T04:49:40.872Z,83.27
2016-08-30T04:50:40.846Z,83.56
2016-08-30T04:51:40.822Z,83.84
2016-08-30T04:52:40.799Z,83.79
2016-08-30T04:53:40.778Z,83.56
2016-08-30T04:54:40.759Z,83.75
2016-08-30T04:55:40.731Z,83.56
2016-08-30T04:56:40.715Z,83.75
2016-08-30T04:57:40.685Z,83.84
2016-08-30T04:58:40.661Z,83.84
2016-08-30T04:59:40.636Z,83.75
2016-08-30T05:00:40.614Z,83.75
2016-08-30T05:01:40.590Z,83.94
2016-08-30T05:02:40.566Z,83.89
2016-08-30T05:03:40.551Z,83.89
2016-08-30T05:04:40.519Z,83.98
2016-08-30T05:05:40.497Z,84.17
2016-08-30T05:06:40.475Z,83.89
2016-08-30T05:07:40.450Z,83.98
2016-08-30T05:08:40.426Z,83.94
2016-08-30T05:09:40.403Z,83.79
2016-08-30T05:10:40.380Z,83.6
2016-08-30T05:11:40.357Z,83.69
2016-08-30T05:12:40.343Z,83.6
2016-08-30T05:13:40.317Z,83.6
2016-08-30T05:14:40.289Z,83.6
2016-08-30T05:15:40.261Z,83.79
2016-08-30T05:16:40.240Z,83.79
2016-08-30T05:17:40.218Z,83.69
2016-08-30T05:18:40.193Z,83.5
2016-08-30T05:19:40.171Z,83.4
2016-08-30T05:20:40.153Z,83.6
2016-08-30T05:21:40.125Z,83.6
2016-08-30T05:22:40.102Z,83.89
2016-08-30T05:23:40.076Z,83.69
2016-08-30T05:24:40.055Z,83.5
2016-08-30T05:25:40.032Z,83.69
2016-08-30T05:26:40.006Z,83.6
2016-08-30T05:27:39.985Z,83.79
2016-08-30T05:28:39.963Z,83.6
2016-08-30T05:29:39.938Z,83.4
2016-08-30T05:30:39.924Z,83.6
2016-08-30T05:31:39.893Z,83.6
2016-08-30T05:32:39.876Z,83.79
2016-08-30T05:33:39.847Z,83.6
2016-08-30T05:34:39.823Z,83.6
2016-08-30T05:35:39.800Z,83.6
2016-08-30T05:36:39.778Z,83.79
2016-08-30T05:37:39.753Z,83.6
2016-08-30T05:38:39.731Z,83.79
2016-08-30T05:39:40.748Z,83.89
2016-08-30T05:40:41.914Z,83.69
2016-08-30T05:41:39.914Z,83.6
2016-08-30T05:42:39.643Z,83.6
2016-08-30T05:43:39.614Z,83.5
2016-08-30T05:44:39.596Z,83.4
2016-08-30T05:45:43.751Z,83.03
2016-08-30T05:46:39.658Z,83.4
2016-08-30T05:47:39.525Z,83.22
2016-08-30T05:48:39.505Z,83.12
2016-08-30T05:49:39.478Z,83.22
2016-08-30T05:50:39.462Z,82.83
2016-08-30T05:51:39.438Z,82.93
2016-08-30T05:52:39.408Z,83.12
2016-08-30T05:57:09.869Z,83.22
2016-08-30T05:58:09.845Z,82.74
2016-08-30T05:59:10.161Z,82.83
2016-08-30T06:00:15.616Z,82.93
2016-08-30T06:01:22.900Z,83.03
2016-08-30T06:02:09.775Z,83.12
2016-08-30T06:03:09.738Z,82.54
2016-08-30T06:04:09.715Z,82.54
2016-08-30T06:05:10.823Z,82.54
2016-08-30T06:06:09.665Z,82.3
2016-08-30T06:07:14.588Z,82.49
2016-08-30T06:08:12.020Z,82.3
2016-08-30T06:09:09.778Z,82.2
2016-08-30T06:10:22.200Z,82.2
2016-08-30T06:11:09.559Z,82.11
2016-08-30T06:12:09.534Z,82.4
2016-08-30T06:13:09.522Z,82.11
2016-08-30T06:14:09.484Z,82.4
2016-08-30T06:15:13.658Z,82.3
2016-08-30T06:16:09.461Z,81.73
2016-08-30T06:17:09.457Z,81.92
2016-08-30T06:18:09.394Z,82.3
2016-08-30T06:19:09.375Z,82.06
2016-08-30T06:20:17.984Z,81.57
2016-08-30T06:21:09.381Z,81.92
2016-08-30T06:22:09.346Z,81.86
2016-08-30T06:23:09.299Z,81.73
2016-08-30T06:24:09.264Z,82.15
2016-08-30T06:25:09.237Z,81.48
2016-08-30T06:26:09.214Z,81.29
2016-08-30T06:27:09.201Z,81.29
2016-08-30T06:28:09.175Z,81.1
2016-08-30T06:29:09.148Z,81.48
2016-08-30T06:30:09.126Z,81.77
2016-08-30T06:31:09.105Z,80.81
2016-08-30T06:32:09.080Z,81
2016-08-30T06:33:09.061Z,81.1
2016-08-30T06:34:09.038Z,80.71
2016-08-30T06:35:09.015Z,80.9
2016-08-30T06:36:09.006Z,80.18
2016-08-30T06:37:08.979Z,80.47
2016-08-30T06:38:08.954Z,80.37
2016-08-30T06:39:08.933Z,79.8
2016-08-30T06:40:09.397Z,79.7
2016-08-30T06:41:08.893Z,79.8
2016-08-30T06:42:08.871Z,79.51
2016-08-30T06:43:08.849Z,79.41
2016-08-30T06:44:08.831Z,78.93
2016-08-30T06:45:08.807Z,79.03
2016-08-30T06:46:08.788Z,78.45
2016-08-30T06:47:08.764Z,78.45
2016-08-30T06:48:08.746Z,78.64
2016-08-30T06:49:08.722Z,78.59
2016-08-30T06:50:08.702Z,78.2
2016-08-30T06:51:08.682Z,78.11
2016-08-30T06:52:08.659Z,78.02
2016-08-30T06:53:08.641Z,77.53
2016-08-30T06:54:08.619Z,77.73
2016-08-30T06:55:08.924Z,77.44
2016-08-30T06:56:08.576Z,77.25
2016-08-30T06:57:08.562Z,76.96
2016-08-30T06:58:08.537Z,77.15
2016-08-30T06:59:08.514Z,76.77
2016-08-30T07:00:08.493Z,76.77
2016-08-30T07:01:08.471Z,76.77
2016-08-30T07:02:08.451Z,76.96
2016-08-30T07:03:08.428Z,76.86
2016-08-30T07:04:08.407Z,76.48
2016-08-30T07:05:08.387Z,76.67
2016-08-30T07:06:08.378Z,76.39
2016-08-30T07:07:08.346Z,76.29
2016-08-30T07:08:08.326Z,76.29
2016-08-30T07:09:08.304Z,76.29
2016-08-30T07:10:08.405Z,76.29
2016-08-30T07:11:08.264Z,76.14
2016-08-30T07:12:08.249Z,75.85
2016-08-30T07:13:08.222Z,75.56
2016-08-30T07:14:08.211Z,75.27
2016-08-30T07:15:08.183Z,75.56
2016-08-30T07:16:08.162Z,74.79
2016-08-30T07:17:08.146Z,74.54
2016-08-30T07:18:08.125Z,74.26
2016-08-30T07:19:08.109Z,74.16
2016-08-30T07:20:16.979Z,73.3
2016-08-30T07:21:09.837Z,73.72
2016-08-30T07:22:08.122Z,73.52
2016-08-30T07:23:08.039Z,72.37
2016-08-30T07:24:08.144Z,72.56
2016-08-30T07:25:10.912Z,71.83
2016-08-30T07:26:09.468Z,71.45
2016-08-30T07:27:07.965Z,71.55
2016-08-30T07:28:08.640Z,71.35
2016-08-30T07:29:07.934Z,70.78
2016-08-30T07:30:07.918Z,70.49
2016-08-30T07:31:07.897Z,70.62
2016-08-30T07:32:07.896Z,70.43
2016-08-30T07:33:07.863Z,70.04
2016-08-30T07:34:07.846Z,69.37
2016-08-30T07:35:07.830Z,69.08
2016-08-30T07:36:07.935Z,69.18
2016-08-30T07:37:07.795Z,68.51
2016-08-30T07:38:07.777Z,68.51
2016-08-30T07:39:07.764Z,68.35
2016-08-30T07:40:08.897Z,67.74
2016-08-30T07:41:07.736Z,68.06
2016-08-30T07:42:07.714Z,67.96
2016-08-30T07:43:07.697Z,67.38
2016-08-30T07:44:07.686Z,67.29
2016-08-30T07:45:07.663Z,67.13
2016-08-30T07:46:07.646Z,66.74
2016-08-30T07:47:08.568Z,66.84
2016-08-30T07:48:07.612Z,66.91
2016-08-30T07:49:07.595Z,66.46
2016-08-30T07:50:07.604Z,66.07
2016-08-30T07:51:07.564Z,66.46
2016-08-30T07:52:07.560Z,66.27
2016-08-30T07:53:07.533Z,66.27
2016-08-30T07:54:07.568Z,65.97
2016-08-30T07:55:07.506Z,66.07
2016-08-30T07:56:07.481Z,66.07
2016-08-30T07:57:07.471Z,65.88
2016-08-30T07:58:07.446Z,65.97
2016-08-30T07:59:07.424Z,65.46
2016-08-30T08:00:07.936Z,65.56
2016-08-30T08:01:08.086Z,65.46
2016-08-30T08:02:07.371Z,65.46
2016-08-30T08:03:07.350Z,65.46
2016-08-30T08:04:07.334Z,65.3
2016-08-30T08:05:07.318Z,65.2
2016-08-30T08:06:07.297Z,65.2
2016-08-30T08:07:07.279Z,65.3
2016-08-30T08:08:07.260Z,64.92
2016-08-30T08:09:07.245Z,65.01
2016-08-30T08:10:07.225Z,64.82
2016-08-30T08:11:07.211Z,64.34
2016-08-30T08:12:07.190Z,64.34
2016-08-30T08:13:07.169Z,64.43
2016-08-30T08:14:07.151Z,64.34
2016-08-30T08:15:07.133Z,64.43
2016-08-30T08:16:07.114Z,63.95
2016-08-30T08:17:07.096Z,64.05
2016-08-30T08:18:07.076Z,63.86
2016-08-30T08:19:07.058Z,63.67
2016-08-30T08:20:07.041Z,63.95
2016-08-30T08:21:07.020Z,63.28
2016-08-30T08:22:07.001Z,63.76
2016-08-30T08:23:06.983Z,63.38
2016-08-30T08:24:06.985Z,63.28
2016-08-30T08:25:07.645Z,62.9
2016-08-30T08:26:06.928Z,62.8
2016-08-30T08:27:06.910Z,62.51
2016-08-30T08:28:06.891Z,62.99
2016-08-30T08:29:06.872Z,62.51
2016-08-30T08:30:06.854Z,61.94
2016-08-30T08:31:07.527Z,62.03
2016-08-30T08:32:06.816Z,61.65
2016-08-30T08:33:06.796Z,61.26
2016-08-30T08:34:06.784Z,61.46
2016-08-30T08:35:06.759Z,61.65
2016-08-30T08:36:06.742Z,61.16
2016-08-30T08:37:06.722Z,61.29
2016-08-30T08:38:06.703Z,60.88
2016-08-30T08:39:06.690Z,60.72
2016-08-30T08:40:07.358Z,60.14
2016-08-30T08:42:30.487Z,59.72
2016-08-30T08:43:20.476Z,59.08
2016-08-30T08:44:21.850Z,58.5
2016-08-30T08:45:21.240Z,58.12
2016-08-30T08:46:20.569Z,58.12
2016-08-30T08:47:20.437Z,57.54
2016-08-30T08:48:20.408Z,57.83
2016-08-30T08:49:20.370Z,57.35
2016-08-30T08:50:20.359Z,57.06
2016-08-30T08:51:20.330Z,56.87
2016-08-30T08:52:20.309Z,56.67
2016-08-30T08:53:20.293Z,56.67
2016-08-30T08:54:20.288Z,56.38
2016-08-30T08:55:23.769Z,56.48
2016-08-30T08:56:20.246Z,56.38
2016-08-30T08:57:20.215Z,55.52
2016-08-30T08:58:20.218Z,55.9
2016-08-30T08:59:20.183Z,55.13
2016-08-30T09:00:21.107Z,55.71
2016-08-30T09:01:20.139Z,55.9
2016-08-30T09:02:20.120Z,55.43
2016-08-30T09:03:20.111Z,55.23
2016-08-30T09:04:20.098Z,54.94
2016-08-30T09:05:21.034Z,54.85
2016-08-30T09:06:20.048Z,54.65
2016-08-30T09:07:20.027Z,54.39
2016-08-30T09:08:20.015Z,54.36
2016-08-30T09:09:19.994Z,54.39
2016-08-30T09:10:21.125Z,54.39
2016-08-30T09:11:19.960Z,54.2
2016-08-30T09:12:19.938Z,53.72
2016-08-30T09:13:19.924Z,53.43
2016-08-30T09:14:19.901Z,53.14
2016-08-30T09:15:19.882Z,52.47
2016-08-30T09:16:19.865Z,52.37
2016-08-30T09:17:19.845Z,52.56
2016-08-30T09:18:19.827Z,52.37
2016-08-30T09:19:19.810Z,52.37
2016-08-30T09:20:19.790Z,52.08
2016-08-30T09:21:19.773Z,52.08
2016-08-30T09:22:19.755Z,51.6
2016-08-30T09:23:20.733Z,51.79
2016-08-30T09:24:19.719Z,51.7
2016-08-30T09:25:19.701Z,51.41
2016-08-30T09:26:19.681Z,51.31
2016-08-30T09:27:19.666Z,51.31
2016-08-30T09:28:19.645Z,51.21
2016-08-30T09:29:20.319Z,51.5
2016-08-30T09:30:19.683Z,51.12
2016-08-30T09:31:19.593Z,50.63
2016-08-30T09:32:19.574Z,50.45
2016-08-30T09:33:19.558Z,50.35
2016-08-30T09:34:20.236Z,49.96
2016-08-30T09:35:19.522Z,50.37
2016-08-30T09:36:19.507Z,49.51
2016-08-30T09:37:19.484Z,49.41
2016-08-30T09:38:19.467Z,49.32
2016-08-30T09:39:19.448Z,49.12
2016-08-30T09:40:19.431Z,48.64
2016-08-30T09:41:19.412Z,48.25
2016-08-30T09:42:19.394Z,47.77
2016-08-30T09:43:19.516Z,47.58
2016-08-30T09:44:19.363Z,47.19
2016-08-30T09:45:20.267Z,47.58
2016-08-30T09:46:19.322Z,47.12
2016-08-30T09:47:19.306Z,46.83
2016-08-30T09:48:19.287Z,47.51
2016-08-30T09:49:19.270Z,47.41
2016-08-30T09:50:19.254Z,46.93
2016-08-30T09:51:19.235Z,46.73
2016-08-30T09:52:19.218Z,46.73
2016-08-30T09:53:19.212Z,46.73
2016-08-30T09:54:19.182Z,46.93
2016-08-30T09:55:19.164Z,47.6
2016-08-30T09:56:19.148Z,47.41
2016-08-30T09:57:19.129Z,47.41
2016-08-30T09:58:19.111Z,47.41
2016-08-30T09:59:19.095Z,47.31
2016-08-30T10:00:19.076Z,47.14
2016-08-30T10:01:19.060Z,47.24
2016-08-30T10:02:19.042Z,47.63
2016-08-30T10:03:19.024Z,47.44
2016-08-30T10:04:19.010Z,46.95
2016-08-30T10:05:18.993Z,47.05
2016-08-30T10:06:18.972Z,47.14
2016-08-30T10:07:18.955Z,47.12
2016-08-30T10:08:18.936Z,47.44
2016-08-30T10:09:18.921Z,47.12
2016-08-30T10:10:18.902Z,47.14
2016-08-30T10:11:18.886Z,47.7
2016-08-30T10:12:18.870Z,47.53
2016-08-30T10:13:18.851Z,47.63
2016-08-30T10:14:18.834Z,47.63
2016-08-30T10:15:18.819Z,47.92
2016-08-30T10:16:18.800Z,46.95
2016-08-30T10:17:18.783Z,47.05
2016-08-30T10:18:19.459Z,47.44
2016-08-30T10:19:18.749Z,47.53
2016-08-30T10:20:18.732Z,47.63
2016-08-30T10:21:18.715Z,47.44
2016-08-30T10:22:18.698Z,47.44
2016-08-30T10:23:18.680Z,47.34
2016-08-30T10:24:18.665Z,47.34
2016-08-30T10:25:18.647Z,47.05
2016-08-30T10:26:18.630Z,46.95
2016-08-30T10:27:18.612Z,47.05
2016-08-30T10:28:18.593Z,47.05
2016-08-30T10:29:18.577Z,47.44
2016-08-30T10:30:18.560Z,46.76
2016-08-30T10:31:18.543Z,46.47
2016-08-30T10:32:18.526Z,46.69
2016-08-30T10:33:18.510Z,46.56
2016-08-30T10:34:18.502Z,45.92
2016-08-30T10:35:18.475Z,46.4
2016-08-30T10:36:18.463Z,45.82
2016-08-30T10:37:18.441Z,45.62
2016-08-30T10:38:18.424Z,45.62
2016-08-30T10:39:18.408Z,45.07
2016-08-30T10:40:18.391Z,44.97
2016-08-30T10:41:18.378Z,44.49
2016-08-30T10:42:18.357Z,43.81
2016-08-30T10:43:18.341Z,43.81
2016-08-30T10:44:18.325Z,43.43
2016-08-30T10:45:18.306Z,42.75
2016-08-30T10:46:18.290Z,42.75
2016-08-30T10:47:18.273Z,42.27
2016-08-30T10:48:18.256Z,42.08
2016-08-30T10:49:18.241Z,41.02
2016-08-30T10:50:18.223Z,40.63
2016-08-30T10:51:18.208Z,40.05
2016-08-30T10:52:18.191Z,39.57
2016-08-30T10:53:18.174Z,39.09
2016-08-30T10:54:18.161Z,38.89
2016-08-30T10:55:18.278Z,38.89
2016-08-30T10:56:18.125Z,38.89
2016-08-30T10:57:18.106Z,38.89
2016-08-30T10:58:18.097Z,39.01
2016-08-30T10:59:18.073Z,39.2
2016-08-30T11:00:18.061Z,38.91
2016-08-30T11:01:18.042Z,38.62
2016-08-30T11:02:18.025Z,38.53
2016-08-30T11:03:18.022Z,38.33
2016-08-30T11:04:17.998Z,38.14
2016-08-30T11:05:17.976Z,38.14
2016-08-30T11:06:18.310Z,37.95
2016-08-30T11:07:17.942Z,37.77
2016-08-30T11:08:17.927Z,37.65
2016-08-30T11:09:17.910Z,37.95
2016-08-30T11:10:17.892Z,38.14
2016-08-30T11:11:17.876Z,38.14
2016-08-30T11:12:17.861Z,38.14
2016-08-30T11:13:17.844Z,38.14
2016-08-30T11:14:17.828Z,38.04
2016-08-30T11:15:17.813Z,38.04
2016-08-30T11:16:17.797Z,38.04
2016-08-30T11:17:17.780Z,37.65
2016-08-30T11:18:17.764Z,37.65
2016-08-30T11:19:17.743Z,37.75
2016-08-30T11:20:17.728Z,37.75
2016-08-30T11:21:17.711Z,37.65
2016-08-30T11:22:17.696Z,37.75
2016-08-30T11:23:17.678Z,37.75
2016-08-30T11:24:17.680Z,37.65
2016-08-30T11:25:17.651Z,37.48
2016-08-30T11:26:17.630Z,37.29
2016-08-30T11:27:17.616Z,37.48
2016-08-30T11:28:17.600Z,37.1
2016-08-30T11:29:17.589Z,37.29
2016-08-30T11:30:17.568Z,37.29
2016-08-30T11:31:17.550Z,37.48
2016-08-30T11:32:17.534Z,37.1
2016-08-30T11:33:17.524Z,37.1
2016-08-30T11:34:17.502Z,37.19
2016-08-30T11:35:17.487Z,37.37
2016-08-30T11:36:17.470Z,37.17
2016-08-30T11:37:17.454Z,37.08
2016-08-30T11:38:17.444Z,37.08
2016-08-30T11:39:17.421Z,36.98
2016-08-30T11:40:17.407Z,37.27
2016-08-30T11:41:17.391Z,37.1
2016-08-30T11:42:17.377Z,37.1
2016-08-30T11:43:17.358Z,37.1
2016-08-30T11:44:17.342Z,37
2016-08-30T11:45:17.324Z,36.8
2016-08-30T11:46:17.310Z,36.52
2016-08-30T11:47:17.294Z,36.22
2016-08-30T11:48:17.276Z,35.64
2016-08-30T11:49:17.262Z,35.26
2016-08-30T11:50:17.850Z,35.16
2016-08-30T11:51:17.228Z,34.87
2016-08-30T11:52:17.221Z,34.87
2016-08-30T11:53:17.197Z,34.68
2016-08-30T11:54:17.182Z,34.78
2016-08-30T11:55:17.165Z,34.21
2016-08-30T11:56:17.174Z,33.63
2016-08-30T11:57:17.133Z,33.73
2016-08-30T11:58:17.116Z,33.92
2016-08-30T11:59:17.123Z,34.02
2016-08-30T12:00:17.086Z,33.54
2016-08-30T12:01:17.068Z,33.34
2016-08-30T12:02:17.053Z,33.34
2016-08-30T12:03:17.038Z,32.96
2016-08-30T12:04:17.023Z,33.07
2016-08-30T12:05:17.287Z,33.36
2016-08-30T12:06:16.990Z,33.45
2016-08-30T12:07:16.974Z,33.36
2016-08-30T12:08:16.959Z,33.26
2016-08-30T12:09:16.943Z,32.87
2016-08-30T12:10:16.929Z,32.87
2016-08-30T12:11:16.913Z,32.78
2016-08-30T12:12:16.896Z,32.51
2016-08-30T12:13:16.886Z,32.51
2016-08-30T12:14:16.865Z,32.41
2016-08-30T12:15:16.851Z,32.41
2016-08-30T12:16:16.834Z,32.21
2016-08-30T12:17:16.819Z,32.02
2016-08-30T12:18:16.803Z,32.12
2016-08-30T12:19:17.481Z,31.83
2016-08-30T12:20:16.772Z,31.93
2016-08-30T12:21:16.757Z,32.02
2016-08-30T12:22:16.749Z,32.31
2016-08-30T12:23:16.742Z,32.79
2016-08-30T12:24:16.711Z,32.99
2016-08-30T12:25:16.695Z,33.09
2016-08-30T12:26:16.681Z,33.37
2016-08-30T12:27:16.664Z,33.57
2016-08-30T12:28:16.651Z,33.67
2016-08-30T12:29:16.634Z,33.37
2016-08-30T12:30:16.620Z,33.37
2016-08-30T12:31:16.603Z,33.37
2016-08-30T12:32:16.589Z,33.57
2016-08-30T12:33:16.573Z,33.37
2016-08-30T12:34:16.558Z,33.76
2016-08-30T12:35:16.542Z,33.18
2016-08-30T12:36:16.527Z,33.37
2016-08-30T12:37:16.512Z,33.29
2016-08-30T12:38:16.496Z,33.09
2016-08-30T12:39:16.481Z,32.62
2016-08-30T12:40:16.466Z,32.62
2016-08-30T12:41:16.455Z,32.51
2016-08-30T12:42:16.437Z,32.52
2016-08-30T12:43:16.420Z,32.33
2016-08-30T12:44:16.407Z,32.23
2016-08-30T12:45:16.392Z,32.23
2016-08-30T12:46:16.374Z,32.04
2016-08-30T12:47:16.361Z,32.04
2016-08-30T12:48:16.348Z,32.14
2016-08-30T12:49:16.335Z,31.94
2016-08-30T12:50:16.316Z,31.74
2016-08-30T12:51:16.303Z,31.46
2016-08-30T12:52:16.285Z,31.37
2016-08-30T12:53:16.271Z,31.47
2016-08-30T12:54:16.259Z,30.99
2016-08-30T12:55:16.240Z,30.89
2016-08-30T12:56:16.233Z,30.69
2016-08-30T12:57:16.212Z,30.69
2016-08-30T12:58:16.196Z,30.6
2016-08-30T12:59:16.194Z,30.51
2016-08-30T13:00:16.166Z,30.69